Nearby METAR Reports

 

KCIC - Chico Municipal, California, USA
Distance from station: SSW 12mi, 20km
Updated: Mon, 19-Feb-2018 10:47am PST
Few Clouds
Few Clouds
 Wind from NW
Wind: NW 17 mph , 28 km/h
Temperature: 46°F , 8°C
Wind Chill: 39°F , 4°C
Dew Point: 19°F , -7°C
Humidity: 34%
Barometer: 30.02 inHg , 1016.6 hPa
Clouds: Few Clouds
Visibility: 40 miles , 64 km
Cloud details: Few Clouds 8000 ft
2018/02/19 18:47 KCIC 191847Z 32015KT 40SM FEW080 08/M07 A3002
KOVE - Oroville, California, USA
Distance from station: SSE 31mi, 50km
Updated: Mon, 19-Feb-2018 10:53am PST
Clear
Clear
 Wind from WNW
Wind: WNW 8 mph , 13 km/h
Temperature: 46°F , 8°C
Wind Chill: 42°F , 6°C
Dew Point: 28°F , -2°C
Humidity: 50%
Barometer: 30.03 inHg , 1016.9 hPa
Clouds: Clear
Visibility: 10 miles , 16 km
2018/02/19 18:53 KOVE 191853Z AUTO 30007KT 10SM CLR 08/M02 A3003 RMK AO2 SLP173 T00781022
 
KRBL - Red Bluff, California, USA
Distance from station: WNW 31mi, 50km
Updated: Mon, 19-Feb-2018 10:54am PST
Clear
Clear
 Wind from NNW
Wind: NNW 9 mph , 15 km/h
Temperature: 48°F , 9°C
Wind Chill: 44°F , 7°C
Dew Point: 19°F , -7°C
Humidity: 32%
Barometer: 30.03 inHg , 1016.9 hPa
Clouds: Clear
Visibility: 10 miles , 16 km
2018/02/19 18:54 KRBL 191854Z AUTO 34008KT 10SM CLR 09/M07 A3003 RMK AO2 SLP168 T00891072
KRDD - Redding, California, USA
Distance from station: NW 50mi, 80km
Updated: Mon, 19-Feb-2018 10:53am PST
Clear
Clear
 Wind from calm
Wind: Calm
Temperature: 46°F , 8°C
Dew Point: 21°F , -6°C
Humidity: 37%
Barometer: 30.01 inHg , 1016.3 hPa
Clouds: Clear
Visibility: 10 miles , 16 km
2018/02/19 18:53 KRDD 191853Z 00000KT 10SM CLR 08/M06 A3001 RMK AO2 SLP163 T00781061
 
KMYV - Marysville, California, USA
Distance from station: S 59mi, 95km
Updated: Mon, 19-Feb-2018 10:53am PST
Clear
Clear
 Wind from N
Wind: N 10 mph , 17 km/h
Temperature: 46°F , 8°C
Wind Chill: 41°F , 5°C
Dew Point: 27°F , -3°C
Humidity: 46%
Barometer: 30.04 inHg , 1017.3 hPa
Clouds: Clear
Visibility: 10 miles , 16 km
2018/02/19 18:53 KMYV 191853Z AUTO 35009KT 10SM CLR 08/M03 A3004 RMK AO2 SLP175 T00831033
KBAB - Beale Afb/Marysv, California, USA
Distance from station: SSE 59mi, 96km
Updated: Mon, 19-Feb-2018 10:58am PST
Clear
Clear
 Wind from NW
Wind: NW 6 mph , 9 km/h
Temperature: 46°F , 8°C
Wind Chill: 43°F , 6°C
Dew Point: 25°F , -4°C
Humidity: 43%
Barometer: 30.01 inHg , 1016.3 hPa
Clouds: Clear
Visibility: 10 miles , 16 km
2018/02/19 18:58 KBAB 191858Z AUTO 31005KT 10SM CLR 08/M04 A3001 RMK AO2 SLP166 T00781040 $
 
KGOO - Grass Valley, California, USA
Distance from station: SE 63mi, 102km
Updated: Mon, 19-Feb-2018 11:20am PST
Mostly cloudy
Mostly cloudy
 Wind from NW
Wind: NW 7 mph , 11 km/h
Temperature: 36°F , 2°C
Wind Chill: 30°F , -1°C
Dew Point: 16°F , -9°C
Humidity: 44%
Barometer: 29.90 inHg , 1012.5 hPa
Clouds: Mostly cloudy
Visibility: 10 miles , 16 km
Cloud details: Partly cloudy 3800 ft
Mostly cloudy 4500 ft
2018/02/19 19:20 KGOO 191920Z AUTO 32006KT 10SM SCT038 BKN045 02/M09 A2990 RMK AO1
KBLU - Emigrant Gap, California, USA
Distance from station: SE 71mi, 115km
Updated: Mon, 19-Feb-2018 10:52am PST
Mostly cloudy
Mostly cloudy
 Wind from WNW
Wind: WNW 6 mph , 9 km/h
Temperature: 21°F , -6°C
Wind Chill: 13°F , -11°C
Dew Point: 10°F , -12°C
Humidity: 63%
Barometer: 29.82 inHg , 1009.8 hPa
Clouds: Mostly cloudy
Visibility: 10 miles , 16 km
Cloud details: Partly cloudy 2800 ft
Mostly cloudy 3500 ft
Mostly cloudy 4400 ft
2018/02/19 18:52 KBLU 191852Z AUTO 29005KT 10SM SCT028 BKN035 BKN044 M06/M12 A2982 RMK AO2 SLP144 T10561117
 
KLHM - Lincoln, California, USA
Distance from station: SSE 74mi, 119km
Updated: Mon, 19-Feb-2018 11:15am PST
Clear
Clear
 Wind from NNW
Wind: NNW 6 mph , 9 km/h
Temperature: 45°F , 7°C
Wind Chill: 42°F , 6°C
Dew Point: 27°F , -3°C
Humidity: 49%
Barometer: 30.02 inHg , 1016.6 hPa
Clouds: Clear
Visibility: 10 miles , 16 km
2018/02/19 19:15 KLHM 191915Z AUTO 33005KT 10SM CLR 07/M03 A3002 RMK AO1
KAUN - Auburn Muni, California, USA
Distance from station: SSE 77mi, 123km
Updated: Mon, 19-Feb-2018 11:15am PST
Clear
Clear
 Wind from NW
Wind: NW 6 mph , 9 km/h
Temperature: 43°F , 6°C
Wind Chill: 39°F , 4°C
Dew Point: 25°F , -4°C
Humidity: 49%
Barometer: 29.97 inHg , 1014.9 hPa
Clouds: Clear
Visibility: 10 miles , 16 km
2018/02/19 19:15 KAUN 191915Z AUTO 32005KT 10SM CLR 06/M04 A2997 RMK AO1
 
KO54 - Weaverville, California, USA
Distance from station: NW 84mi, 135km
Updated: Fri, 16-Jun-2017 5:55pm PDT
NOT Current

 Wind from SW
Wind: SW 12 mph , 19 km/h, Gust: 21 mph , 33 km/h
Temperature: 81°F , 27°C
Dew Point: 54°F , 12°C
Humidity: 39%
Barometer: 30.03 inHg , 1016.9 hPa
Visibility: 10 miles , 16 km
2017/06/17 00:55 KO54 170055Z AUTO 23010G18KT 190V250 10SM 27/12 A3003 RMK AO1
KSMF - Sacramento/Metro, California, USA
Distance from station: S 86mi, 139km
Updated: Mon, 19-Feb-2018 10:53am PST
Clear
Clear
 Wind from N
Wind: N 12 mph , 19 km/h
Temperature: 46°F , 8°C
Wind Chill: 40°F , 4°C
Dew Point: 27°F , -3°C
Humidity: 46%
Barometer: 30.03 inHg , 1016.9 hPa
Clouds: Clear
Visibility: 10 miles , 16 km
2018/02/19 18:53 KSMF 191853Z 35010KT 10SM CLR 08/M03 A3003 RMK AO2 SLP168 T00831033
 
KMCC - Mcclellan Afb, California, USA
Distance from station: SSE 90mi, 145km
Updated: Mon, 19-Feb-2018 11:15am PST
Clear
Clear
 Wind from NNW
Wind: NNW 13 mph , 20 km/h
Temperature: 46°F , 8°C
Wind Chill: 40°F , 4°C
Dew Point: 25°F , -4°C
Humidity: 43%
Barometer: 30.05 inHg , 1017.6 hPa
Clouds: Clear
Visibility: 10 miles , 16 km
2018/02/19 19:15 KMCC 191915Z AUTO 33011KT 10SM CLR 08/M04 A3005 RMK AO2
KTRK - Truckee Tahoe, California, USA
Distance from station: ESE 96mi, 155km
Updated: Mon, 19-Feb-2018 10:45am PST
Overcast
Overcast
 Wind from WNW
Wind: WNW 8 mph , 13 km/h, Gust: 18 mph , 30 km/h
Temperature: 19°F , -7°C
Wind Chill: 9°F , -13°C
Dew Point: 7°F , -14°C
Humidity: 58%
Barometer: 29.79 inHg , 1008.8 hPa
Clouds: Overcast
Visibility: 10 miles , 16 km
Cloud details: Mostly cloudy 3900 ft
Overcast 4600 ft
2018/02/19 18:45 KTRK 191845Z 30007G16KT 10SM BKN039 OVC046 M07/M14 A2979
 
KUKI - Ukiah, California, USA
Distance from station: SW 97mi, 156km
Updated: Mon, 19-Feb-2018 10:56am PST
Partly cloudy
Partly cloudy
 Wind from WNW
Wind: WNW 13 mph , 20 km/h, Gust: 18 mph , 30 km/h
Temperature: 45°F , 7°C
Wind Chill: 39°F , 4°C
Dew Point: 27°F , -3°C
Humidity: 49%
Barometer: 30.05 inHg , 1017.6 hPa
Clouds: Partly cloudy
Visibility: 10 miles , 16 km
Cloud details: Partly cloudy 4100 ft
2018/02/19 18:56 KUKI 191856Z AUTO 30011G16KT 10SM SCT041 07/M03 A3005 RMK AO2 SLP175 T00721033
KEDU - Davis, California, USA
Distance from station: S 97mi, 157km
Updated: Mon, 19-Feb-2018 11:20am PST
Clear
Clear
 Wind from NNW
Wind: NNW 13 mph , 20 km/h
Temperature: 48°F , 9°C
Wind Chill: 43°F , 6°C
Dew Point: 21°F , -6°C
Humidity: 34%
Barometer: 30.04 inHg , 1017.3 hPa
Clouds: Clear
Visibility: 10 miles , 16 km
2018/02/19 19:20 KEDU 191920Z AUTO 33011KT 10SM CLR 09/M06 A3004 RMK AO1
 
KMHR - Mather Field, California, USA
Distance from station: SSE 100mi, 161km
Updated: Mon, 19-Feb-2018 10:50am PST
Clear
Clear
 Wind from calm
Wind: Calm
Temperature: 46°F , 8°C
Dew Point: 28°F , -2°C
Humidity: 50%
Barometer: 30.02 inHg , 1016.6 hPa
Clouds: Clear
Visibility: 10 miles , 16 km
2018/02/19 18:50 KMHR 191850Z 00000KT 10SM SKC 08/M02 A3002
KMHS - Mount Shasta, California, USA
Distance from station: NNW 100mi, 161km
Updated: Mon, 19-Feb-2018 10:56am PST
Overcast
Overcast
 Wind from N
Wind: N 9 mph , 15 km/h, Gust: 17 mph , 28 km/h
Temperature: 28°F , -2°C
Wind Chill: 19°F , -7°C
Dew Point: 12°F , -11°C
Humidity: 51%
Barometer: 29.94 inHg , 1013.9 hPa
Clouds: Overcast
Visibility: 10 miles , 16 km
Cloud details: Overcast 5000 ft
2018/02/19 18:56 KMHS 191856Z AUTO 36008G15KT 290V030 10SM OVC050 M02/M11 A2994 RMK AO2 SLP181 T10171111
 
KRTS - Reno/Stead, Nevada, USA
Distance from station: E 100mi, 161km
Updated: Mon, 19-Feb-2018 11:15am PST
Mostly cloudy
Mostly cloudy
 Wind from W
Wind: W 9 mph , 15 km/h
Temperature: 23°F , -5°C
Wind Chill: 13°F , -11°C
Dew Point: 12°F , -11°C
Humidity: 63%
Barometer: 29.84 inHg , 1010.5 hPa
Clouds: Mostly cloudy
Visibility: 10 miles , 16 km
Cloud details: Few Clouds 300 ft
Partly cloudy 4100 ft
Mostly cloudy 4800 ft
2018/02/19 19:15 KRTS 191915Z AUTO 27008KT 10SM FEW003 SCT041 BKN048 M05/M11 A2984 RMK AO2
KSAC - Sacramento, California, USA
Distance from station: S 100mi, 162km
Updated: Mon, 19-Feb-2018 10:53am PST
Clear
Clear
 Wind from NNW
Wind: NNW 13 mph , 20 km/h, Gust: 20 mph , 31 km/h
Temperature: 48°F , 9°C
Wind Chill: 43°F , 6°C
Dew Point: 28°F , -2°C
Humidity: 46%
Barometer: 30.03 inHg , 1016.9 hPa
Clouds: Clear
Visibility: 10 miles , 16 km
2018/02/19 18:53 KSAC 191853Z 34011G17KT 320V020 10SM CLR 09/M02 A3003 RMK AO2 SLP169 T00891022 $